sensor_id;sensor_type;location;lat;lon;timestamp;pressure;altitude;pressure_sealevel;temperature;humidity
12146;BME280;6136;47.032;15.398;2023-05-03T00:00:05;98014.13;;;11.48;100.00
12146;BME280;6136;47.032;15.398;2023-05-03T00:02:36;98008.63;;;11.51;100.00
12146;BME280;6136;47.032;15.398;2023-05-03T00:05:06;98011.28;;;11.51;100.00
12146;BME280;6136;47.032;15.398;2023-05-03T00:07:41;98011.19;;;11.52;100.00
12146;BME280;6136;47.032;15.398;2023-05-03T00:10:10;97995.53;;;11.48;100.00
12146;BME280;6136;47.032;15.398;2023-05-03T00:12:42;98007.19;;;11.45;100.00
12146;BME280;6136;47.032;15.398;2023-05-03T00:15:10;98009.06;;;11.43;100.00
12146;BME280;6136;47.032;15.398;2023-05-03T00:17:40;98009.91;;;11.44;100.00
12146;BME280;6136;47.032;15.398;2023-05-03T00:20:08;98007.19;;;11.45;100.00
12146;BME280;6136;47.032;15.398;2023-05-03T00:22:37;98004.97;;;11.38;100.00
12146;BME280;6136;47.032;15.398;2023-05-03T00:25:07;98001.56;;;11.36;100.00
12146;BME280;6136;47.032;15.398;2023-05-03T00:27:35;98004.97;;;11.38;100.00
12146;BME280;6136;47.032;15.398;2023-05-03T00:30:05;98003.25;;;11.37;100.00
12146;BME280;6136;47.032;15.398;2023-05-03T00:32:33;98001.38;;;11.39;100.00
12146;BME280;6136;47.032;15.398;2023-05-03T00:35:03;98004.63;;;11.44;100.00
12146;BME280;6136;47.032;15.398;2023-05-03T00:37:32;97994.19;;;11.41;100.00
12146;BME280;6136;47.032;15.398;2023-05-03T00:40:00;97994.19;;;11.41;100.00
12146;BME280;6136;47.032;15.398;2023-05-03T00:42:28;98000.00;;;11.47;100.00
12146;BME280;6136;47.032;15.398;2023-05-03T00:44:57;98001.03;;;11.45;100.00
12146;BME280;6136;47.032;15.398;2023-05-03T00:47:25;97997.50;;;11.44;100.00
12146;BME280;6136;47.032;15.398;2023-05-03T00:49:53;97996.94;;;11.39;100.00
12146;BME280;6136;47.032;15.398;2023-05-03T00:52:23;98012.22;;;11.50;100.00
12146;BME280;6136;47.032;15.398;2023-05-03T00:54:52;98006.31;;;11.45;100.00
12146;BME280;6136;47.032;15.398;2023-05-03T00:57:21;97995.72;;;11.45;100.00
12146;BME280;6136;47.032;15.398;2023-05-03T00:59:51;98011.47;;;11.48;100.00
12146;BME280;6136;47.032;15.398;2023-05-03T01:02:20;98002.31;;;11.38;100.00
12146;BME280;6136;47.032;15.398;2023-05-03T01:04:48;98008.78;;;11.34;100.00
12146;BME280;6136;47.032;15.398;2023-05-03T01:07:26;98000.81;;;11.34;100.00
12146;BME280;6136;47.032;15.398;2023-05-03T01:10:02;97995.59;;;11.32;100.00
12146;BME280;6136;47.032;15.398;2023-05-03T01:12:41;97993.00;;;11.31;100.00
12146;BME280;6136;47.032;15.398;2023-05-03T01:15:16;97998.16;;;11.34;100.00
12146;BME280;6136;47.032;15.398;2023-05-03T01:17:50;98002.41;;;11.36;100.00
12146;BME280;6136;47.032;15.398;2023-05-03T01:20:22;97997.31;;;11.33;100.00
12146;BME280;6136;47.032;15.398;2023-05-03T01:23:10;98004.97;;;11.38;100.00
12146;BME280;6136;47.032;15.398;2023-05-03T01:25:42;98003.25;;;11.37;100.00
12146;BME280;6136;47.032;15.398;2023-05-03T01:28:10;98004.03;;;11.39;100.00
12146;BME280;6136;47.032;15.398;2023-05-03T01:30:39;97997.00;;;11.38;100.00
12146;BME280;6136;47.032;15.398;2023-05-03T01:33:11;97992.72;;;11.35;100.00
12146;BME280;6136;47.032;15.398;2023-05-03T01:35:44;97996.16;;;11.37;100.00
12146;BME280;6136;47.032;15.398;2023-05-03T01:38:15;97989.41;;;11.32;100.00
12146;BME280;6136;47.032;15.398;2023-05-03T01:40:47;97983.50;;;11.26;100.00
12146;BME280;6136;47.032;15.398;2023-05-03T01:43:18;97987.53;;;11.34;100.00
12146;BME280;6136;47.032;15.398;2023-05-03T01:45:47;97987.13;;;11.25;100.00
12146;BME280;6136;47.032;15.398;2023-05-03T01:48:16;97982.06;;;11.21;100.00
12146;BME280;6136;47.032;15.398;2023-05-03T01:50:45;97978.41;;;11.23;100.00
12146;BME280;6136;47.032;15.398;2023-05-03T01:53:13;97990.53;;;11.27;100.00
12146;BME280;6136;47.032;15.398;2023-05-03T01:55:41;97993.19;;;11.27;100.00
12146;BME280;6136;47.032;15.398;2023-05-03T01:58:11;97994.22;;;11.25;100.00
12146;BME280;6136;47.032;15.398;2023-05-03T02:00:40;97990.13;;;11.19;100.00
12146;BME280;6136;47.032;15.398;2023-05-03T02:03:08;97977.56;;;11.07;100.00
12146;BME280;6136;47.032;15.398;2023-05-03T02:05:37;97997.22;;;11.19;100.00
12146;BME280;6136;47.032;15.398;2023-05-03T02:08:05;97987.25;;;11.08;100.00
12146;BME280;6136;47.032;15.398;2023-05-03T02:10:33;97987.91;;;11.12;100.00
12146;BME280;6136;47.032;15.398;2023-05-03T02:13:01;97992.69;;;11.21;100.00
12146;BME280;6136;47.032;15.398;2023-05-03T02:15:31;97984.81;;;11.19;100.00
12146;BME280;6136;47.032;15.398;2023-05-03T02:17:59;97978.84;;;11.16;100.00
12146;BME280;6136;47.032;15.398;2023-05-03T02:20:29;97979.84;;;11.29;100.00
12146;BME280;6136;47.032;15.398;2023-05-03T02:23:02;97982.00;;;11.22;100.00
12146;BME280;6136;47.032;15.398;2023-05-03T02:25:30;97976.41;;;11.27;100.00
12146;BME280;6136;47.032;15.398;2023-05-03T02:27:59;97984.13;;;11.32;100.00
12146;BME280;6136;47.032;15.398;2023-05-03T02:30:27;97982.25;;;11.34;100.00
12146;BME280;6136;47.032;15.398;2023-05-03T02:32:56;97974.03;;;11.22;100.00
12146;BME280;6136;47.032;15.398;2023-05-03T02:35:25;97985.63;;;11.36;100.00
12146;BME280;6136;47.032;15.398;2023-05-03T02:37:53;97984.31;;;11.43;100.00
12146;BME280;6136;47.032;15.398;2023-05-03T02:40:22;97991.44;;;11.42;100.00
12146;BME280;6136;47.032;15.398;2023-05-03T02:42:51;97976.38;;;11.43;100.00
12146;BME280;6136;47.032;15.398;2023-05-03T02:45:25;97963.88;;;11.45;100.00
12146;BME280;6136;47.032;15.398;2023-05-03T02:47:53;97971.81;;;11.45;100.00
12146;BME280;6136;47.032;15.398;2023-05-03T02:50:24;97972.50;;;11.48;100.00
12146;BME280;6136;47.032;15.398;2023-05-03T02:52:53;97975.50;;;11.42;100.00
12146;BME280;6136;47.032;15.398;2023-05-03T02:55:21;97984.31;;;11.43;100.00
12146;BME280;6136;47.032;15.398;2023-05-03T02:57:50;97980.81;;;11.42;100.00
12146;BME280;6136;47.032;15.398;2023-05-03T03:00:19;97967.34;;;11.31;100.00
12146;BME280;6136;47.032;15.398;2023-05-03T03:02:47;97981.25;;;11.35;100.00
12146;BME280;6136;47.032;15.398;2023-05-03T03:05:16;97980.53;;;11.33;100.00
12146;BME280;6136;47.032;15.398;2023-05-03T03:07:49;97980.53;;;11.33;100.00
12146;BME280;6136;47.032;15.398;2023-05-03T03:10:17;97983.75;;;11.38;100.00
12146;BME280;6136;47.032;15.398;2023-05-03T03:12:47;97980.53;;;11.33;100.00
12146;BME280;6136;47.032;15.398;2023-05-03T03:15:24;97984.69;;;11.37;100.00
12146;BME280;6136;47.032;15.398;2023-05-03T03:17:52;97982.25;;;11.34;100.00
12146;BME280;6136;47.032;15.398;2023-05-03T03:20:24;97992.13;;;11.46;100.00
12146;BME280;6136;47.032;15.398;2023-05-03T03:22:54;97990.78;;;11.39;100.00
12146;BME280;6136;47.032;15.398;2023-05-03T03:25:22;97989.22;;;11.35;100.00
12146;BME280;6136;47.032;15.398;2023-05-03T03:27:51;97995.38;;;11.35;100.00
12146;BME280;6136;47.032;15.398;2023-05-03T03:30:19;97995.38;;;11.35;100.00
12146;BME280;6136;47.032;15.398;2023-05-03T03:33:07;97997.00;;;11.38;100.00
12146;BME280;6136;47.032;15.398;2023-05-03T03:35:39;97999.31;;;11.44;100.00
12146;BME280;6136;47.032;15.398;2023-05-03T03:38:11;98001.78;;;11.47;100.00
12146;BME280;6136;47.032;15.398;2023-05-03T03:40:47;97992.47;;;11.40;100.00
12146;BME280;6136;47.032;15.398;2023-05-03T03:43:15;97999.50;;;11.41;100.00
12146;BME280;6136;47.032;15.398;2023-05-03T03:45:44;97999.59;;;11.39;100.00
12146;BME280;6136;47.032;15.398;2023-05-03T03:48:14;98004.13;;;11.37;100.00
12146;BME280;6136;47.032;15.398;2023-05-03T03:50:42;97998.66;;;11.40;100.00
12146;BME280;6136;47.032;15.398;2023-05-03T03:53:13;98004.13;;;11.37;100.00
12146;BME280;6136;47.032;15.398;2023-05-03T03:55:42;98000.69;;;11.35;100.00
12146;BME280;6136;47.032;15.398;2023-05-03T03:58:11;97998.81;;;11.37;100.00
12146;BME280;6136;47.032;15.398;2023-05-03T04:00:40;97999.66;;;11.38;100.00
12146;BME280;6136;47.032;15.398;2023-05-03T04:03:15;98010.13;;;11.41;100.00
12146;BME280;6136;47.032;15.398;2023-05-03T04:05:44;97998.44;;;11.43;100.00
12146;BME280;6136;47.032;15.398;2023-05-03T04:08:14;98009.56;;;11.50;100.00
12146;BME280;6136;47.032;15.398;2023-05-03T04:10:42;98010.91;;;11.57;100.00
12146;BME280;6136;47.032;15.398;2023-05-03T04:13:11;98013.47;;;11.58;100.00
12146;BME280;6136;47.032;15.398;2023-05-03T04:15:39;98017.97;;;11.72;100.00
12146;BME280;6136;47.032;15.398;2023-05-03T04:18:08;98019.75;;;11.72;100.00
12146;BME280;6136;47.032;15.398;2023-05-03T04:20:38;98025.78;;;11.75;100.00
12146;BME280;6136;47.032;15.398;2023-05-03T04:23:07;98027.06;;;11.68;100.00
12146;BME280;6136;47.032;15.398;2023-05-03T04:25:37;98014.16;;;11.62;100.00
12146;BME280;6136;47.032;15.398;2023-05-03T04:28:13;98030.66;;;11.67;100.00
12146;BME280;6136;47.032;15.398;2023-05-03T04:30:45;98032.94;;;11.73;100.00
12146;BME280;6136;47.032;15.398;2023-05-03T04:33:19;98031.75;;;11.79;100.00
12146;BME280;6136;47.032;15.398;2023-05-03T04:35:50;98032.19;;;11.71;100.00
12146;BME280;6136;47.032;15.398;2023-05-03T04:38:19;98031.50;;;11.83;100.00
12146;BME280;6136;47.032;15.398;2023-05-03T04:40:50;98038.06;;;11.92;100.00
12146;BME280;6136;47.032;15.398;2023-05-03T04:43:18;98023.34;;;11.86;100.00
12146;BME280;6136;47.032;15.398;2023-05-03T04:45:47;98037.13;;;11.93;99.76
12146;BME280;6136;47.032;15.398;2023-05-03T04:48:20;98028.28;;;11.92;100.00
12146;BME280;6136;47.032;15.398;2023-05-03T04:50:48;98031.63;;;12.10;100.00
12146;BME280;6136;47.032;15.398;2023-05-03T04:53:19;98033.25;;;12.13;100.00
12146;BME280;6136;47.032;15.398;2023-05-03T04:55:58;98034.38;;;12.09;100.00
12146;BME280;6136;47.032;15.398;2023-05-03T04:58:29;98036.84;;;12.26;99.62
12146;BME280;6136;47.032;15.398;2023-05-03T05:00:58;98032.69;;;12.36;95.99
12146;BME280;6136;47.032;15.398;2023-05-03T05:03:29;98042.38;;;12.37;98.27
12146;BME280;6136;47.032;15.398;2023-05-03T05:06:01;98044.06;;;12.38;97.31
12146;BME280;6136;47.032;15.398;2023-05-03T05:08:31;98036.84;;;12.54;98.03
12146;BME280;6136;47.032;15.398;2023-05-03T05:11:02;98035.81;;;12.57;97.11
12146;BME280;6136;47.032;15.398;2023-05-03T05:13:31;98044.75;;;12.56;94.55
12146;BME280;6136;47.032;15.398;2023-05-03T05:16:00;98044.34;;;12.48;95.61
12146;BME280;6136;47.032;15.398;2023-05-03T05:18:28;98036.75;;;12.70;96.12
12146;BME280;6136;47.032;15.398;2023-05-03T05:21:00;98044.78;;;12.82;96.10
12146;BME280;6136;47.032;15.398;2023-05-03T05:23:31;98049.84;;;12.87;95.51
12146;BME280;6136;47.032;15.398;2023-05-03T05:25:59;98052.91;;;13.08;92.41
12146;BME280;6136;47.032;15.398;2023-05-03T05:28:31;98048.19;;;12.99;93.32
12146;BME280;6136;47.032;15.398;2023-05-03T05:31:00;98050.13;;;12.97;92.20
12146;BME280;6136;47.032;15.398;2023-05-03T05:33:29;98045.44;;;13.00;92.49
12146;BME280;6136;47.032;15.398;2023-05-03T05:35:58;98043.25;;;12.93;92.19
12146;BME280;6136;47.032;15.398;2023-05-03T05:38:26;98040.97;;;13.15;92.64
12146;BME280;6136;47.032;15.398;2023-05-03T05:40:57;98048.75;;;13.18;91.64
12146;BME280;6136;47.032;15.398;2023-05-03T05:43:25;98059.19;;;13.48;90.17
12146;BME280;6136;47.032;15.398;2023-05-03T05:45:55;98053.84;;;13.21;90.32
12146;BME280;6136;47.032;15.398;2023-05-03T05:48:24;98064.06;;;13.41;90.53
12146;BME280;6136;47.032;15.398;2023-05-03T05:50:52;98067.91;;;13.50;88.33
12146;BME280;6136;47.032;15.398;2023-05-03T05:53:21;98064.56;;;13.60;88.96
12146;BME280;6136;47.032;15.398;2023-05-03T05:55:56;98058.13;;;13.77;87.86
12146;BME280;6136;47.032;15.398;2023-05-03T05:58:25;98067.09;;;13.89;87.05
12146;BME280;6136;47.032;15.398;2023-05-03T06:00:58;98072.47;;;13.75;87.19
12146;BME280;6136;47.032;15.398;2023-05-03T06:03:29;98067.69;;;13.80;85.71
12146;BME280;6136;47.032;15.398;2023-05-03T06:06:00;98070.06;;;13.97;86.34
12146;BME280;6136;47.032;15.398;2023-05-03T06:08:28;98075.00;;;14.03;86.96
12146;BME280;6136;47.032;15.398;2023-05-03T06:10:56;98069.91;;;14.13;85.29
12146;BME280;6136;47.032;15.398;2023-05-03T06:13:26;98068.91;;;14.01;84.58
12146;BME280;6136;47.032;15.398;2023-05-03T06:15:57;98074.03;;;14.04;85.51
12146;BME280;6136;47.032;15.398;2023-05-03T06:18:27;98075.13;;;14.27;84.90
12146;BME280;6136;47.032;15.398;2023-05-03T06:20:55;98077.63;;;14.43;83.74
12146;BME280;6136;47.032;15.398;2023-05-03T06:23:24;98087.19;;;14.70;82.86
12146;BME280;6136;47.032;15.398;2023-05-03T06:25:55;98082.09;;;14.80;82.23
12146;BME280;6136;47.032;15.398;2023-05-03T06:28:23;98079.53;;;14.66;81.79
12146;BME280;6136;47.032;15.398;2023-05-03T06:30:54;98088.25;;;14.93;81.31
12146;BME280;6136;47.032;15.398;2023-05-03T06:33:24;98079.72;;;14.88;79.40
12146;BME280;6136;47.032;15.398;2023-05-03T06:35:53;98082.47;;;14.99;79.66
12146;BME280;6136;47.032;15.398;2023-05-03T06:38:22;98082.84;;;15.19;78.16
12146;BME280;6136;47.032;15.398;2023-05-03T06:40:50;98081.81;;;15.08;78.12
12146;BME280;6136;47.032;15.398;2023-05-03T06:43:18;98089.88;;;15.20;77.29
12146;BME280;6136;47.032;15.398;2023-05-03T06:46:08;98082.56;;;15.34;75.33
12146;BME280;6136;47.032;15.398;2023-05-03T06:48:39;98089.38;;;15.14;77.32
12146;BME280;6136;47.032;15.398;2023-05-03T06:51:07;98093.72;;;15.52;78.01
12146;BME280;6136;47.032;15.398;2023-05-03T06:53:36;98092.41;;;15.34;76.42
12146;BME280;6136;47.032;15.398;2023-05-03T06:56:04;98087.31;;;15.78;75.10
12146;BME280;6136;47.032;15.398;2023-05-03T06:58:33;98096.31;;;15.77;75.23
12146;BME280;6136;47.032;15.398;2023-05-03T07:01:01;98094.72;;;16.10;73.21
12146;BME280;6136;47.032;15.398;2023-05-03T07:03:29;98103.78;;;16.20;72.09
12146;BME280;6136;47.032;15.398;2023-05-03T07:05:59;98098.25;;;16.10;73.45
12146;BME280;6136;47.032;15.398;2023-05-03T07:08:27;98103.69;;;16.33;72.25
12146;BME280;6136;47.032;15.398;2023-05-03T07:10:56;98094.56;;;16.35;73.11
12146;BME280;6136;47.032;15.398;2023-05-03T07:13:24;98104.31;;;16.36;71.57
12146;BME280;6136;47.032;15.398;2023-05-03T07:15:52;98098.78;;;16.15;73.05
12146;BME280;6136;47.032;15.398;2023-05-03T07:18:21;98087.66;;;15.98;74.01
12146;BME280;6136;47.032;15.398;2023-05-03T07:20:49;98081.03;;;16.25;72.17
12146;BME280;6136;47.032;15.398;2023-05-03T07:23:18;98092.38;;;15.94;71.74
12146;BME280;6136;47.032;15.398;2023-05-03T07:25:46;98083.84;;;16.24;71.34
12146;BME280;6136;47.032;15.398;2023-05-03T07:28:15;98085.81;;;16.33;71.29
12146;BME280;6136;47.032;15.398;2023-05-03T07:30:44;98096.06;;;16.50;72.27
12146;BME280;6136;47.032;15.398;2023-05-03T07:33:12;98097.47;;;16.21;72.61
12146;BME280;6136;47.032;15.398;2023-05-03T07:35:41;98095.38;;;16.24;70.39
12146;BME280;6136;47.032;15.398;2023-05-03T07:38:09;98096.53;;;16.44;68.96
12146;BME280;6136;47.032;15.398;2023-05-03T07:40:38;98090.72;;;16.50;70.23
12146;BME280;6136;47.032;15.398;2023-05-03T07:43:07;98095.56;;;16.56;70.84
12146;BME280;6136;47.032;15.398;2023-05-03T07:45:36;98088.97;;;16.38;70.77
12146;BME280;6136;47.032;15.398;2023-05-03T07:48:04;98090.28;;;16.79;69.49
12146;BME280;6136;47.032;15.398;2023-05-03T07:50:33;98079.00;;;16.40;70.24
12146;BME280;6136;47.032;15.398;2023-05-03T07:53:01;98079.31;;;16.71;70.40
12146;BME280;6136;47.032;15.398;2023-05-03T07:55:29;98084.06;;;16.78;68.20
12146;BME280;6136;47.032;15.398;2023-05-03T07:58:00;98077.84;;;17.22;67.08
12146;BME280;6136;47.032;15.398;2023-05-03T08:00:29;98083.72;;;16.94;68.68
12146;BME280;6136;47.032;15.398;2023-05-03T08:02:58;98076.06;;;16.89;67.78
12146;BME280;6136;47.032;15.398;2023-05-03T08:05:28;98071.91;;;17.51;65.95
12146;BME280;6136;47.032;15.398;2023-05-03T08:07:56;98086.44;;;17.91;66.90
12146;BME280;6136;47.032;15.398;2023-05-03T08:10:25;98088.91;;;17.83;63.86
12146;BME280;6136;47.032;15.398;2023-05-03T08:12:53;98085.94;;;17.43;65.98
12146;BME280;6136;47.032;15.398;2023-05-03T08:15:22;98088.91;;;17.83;65.61
12146;BME280;6136;47.032;15.398;2023-05-03T08:17:50;98098.44;;;18.08;67.04
12146;BME280;6136;47.032;15.398;2023-05-03T08:20:18;98097.63;;;17.64;65.33
12146;BME280;6136;47.032;15.398;2023-05-03T08:22:51;98092.72;;;18.01;62.63
12146;BME280;6136;47.032;15.398;2023-05-03T08:25:26;98087.53;;;17.89;65.48
12146;BME280;6136;47.032;15.398;2023-05-03T08:27:54;98089.44;;;17.77;63.82
12146;BME280;6136;47.032;15.398;2023-05-03T08:30:24;98092.53;;;17.93;62.80
12146;BME280;6136;47.032;15.398;2023-05-03T08:32:52;98093.19;;;17.86;63.98
12146;BME280;6136;47.032;15.398;2023-05-03T08:35:21;98084.94;;;17.77;63.08
12146;BME280;6136;47.032;15.398;2023-05-03T08:37:49;98088.69;;;17.75;64.26
12146;BME280;6136;47.032;15.398;2023-05-03T08:40:19;98091.69;;;17.38;66.13
12146;BME280;6136;47.032;15.398;2023-05-03T08:42:49;98089.94;;;17.71;66.24
12146;BME280;6136;47.032;15.398;2023-05-03T08:45:17;98089.88;;;17.93;62.41
12146;BME280;6136;47.032;15.398;2023-05-03T08:47:52;98100.81;;;18.43;63.31
12146;BME280;6136;47.032;15.398;2023-05-03T08:50:21;98092.91;;;18.92;59.76
12146;BME280;6136;47.032;15.398;2023-05-03T08:52:51;98097.84;;;19.67;58.02
12146;BME280;6136;47.032;15.398;2023-05-03T08:55:19;98102.09;;;19.80;57.34
12146;BME280;6136;47.032;15.398;2023-05-03T08:57:47;98100.53;;;19.18;58.19
12146;BME280;6136;47.032;15.398;2023-05-03T09:00:16;98115.00;;;19.76;55.14
12146;BME280;6136;47.032;15.398;2023-05-03T09:02:46;98110.78;;;19.43;57.93
12146;BME280;6136;47.032;15.398;2023-05-03T09:05:34;98109.44;;;19.58;56.91
12146;BME280;6136;47.032;15.398;2023-05-03T09:08:06;98106.09;;;19.26;57.57
12146;BME280;6136;47.032;15.398;2023-05-03T09:10:37;98108.13;;;19.13;56.29
12146;BME280;6136;47.032;15.398;2023-05-03T09:13:06;98103.16;;;18.78;57.80
12146;BME280;6136;47.032;15.398;2023-05-03T09:15:35;98109.72;;;18.43;60.00
12146;BME280;6136;47.032;15.398;2023-05-03T09:18:13;98106.66;;;18.99;59.68
12146;BME280;6136;47.032;15.398;2023-05-03T09:20:44;98106.38;;;18.51;61.18
12146;BME280;6136;47.032;15.398;2023-05-03T09:23:27;98093.38;;;18.67;59.34
12146;BME280;6136;47.032;15.398;2023-05-03T09:25:57;98095.59;;;18.92;60.92
12146;BME280;6136;47.032;15.398;2023-05-03T09:28:26;98099.56;;;18.47;59.71
12146;BME280;6136;47.032;15.398;2023-05-03T09:31:04;98102.84;;;18.71;58.53
12146;BME280;6136;47.032;15.398;2023-05-03T09:33:34;98095.16;;;18.87;58.35
12146;BME280;6136;47.032;15.398;2023-05-03T09:36:04;98088.34;;;19.14;57.31
12146;BME280;6136;47.032;15.398;2023-05-03T09:38:33;98101.81;;;19.23;58.24
12146;BME280;6136;47.032;15.398;2023-05-03T09:41:02;98102.06;;;19.51;57.13
12146;BME280;6136;47.032;15.398;2023-05-03T09:43:32;98094.34;;;19.96;55.58
12146;BME280;6136;47.032;15.398;2023-05-03T09:46:08;98093.50;;;20.05;54.36
12146;BME280;6136;47.032;15.398;2023-05-03T09:48:39;98095.13;;;19.58;57.00
12146;BME280;6136;47.032;15.398;2023-05-03T09:51:08;98104.19;;;19.47;56.69
12146;BME280;6136;47.032;15.398;2023-05-03T09:53:38;98099.25;;;19.71;54.85
12146;BME280;6136;47.032;15.398;2023-05-03T09:56:09;98100.97;;;19.72;54.56
12146;BME280;6136;47.032;15.398;2023-05-03T09:58:39;98083.56;;;19.67;54.79
12146;BME280;6136;47.032;15.398;2023-05-03T10:01:08;98092.94;;;19.92;54.47
12146;BME280;6136;47.032;15.398;2023-05-03T10:03:39;98090.03;;;19.15;55.46
12146;BME280;6136;47.032;15.398;2023-05-03T10:06:18;98086.31;;;19.46;54.70
12146;BME280;6136;47.032;15.398;2023-05-03T10:08:52;98082.59;;;18.88;55.60
12146;BME280;6136;47.032;15.398;2023-05-03T10:11:22;98094.34;;;19.36;55.37
12146;BME280;6136;47.032;15.398;2023-05-03T10:13:51;98084.19;;;19.00;55.73
12146;BME280;6136;47.032;15.398;2023-05-03T10:16:23;98095.84;;;18.80;54.87
12146;BME280;6136;47.032;15.398;2023-05-03T10:18:58;98093.38;;;18.67;56.79
12146;BME280;6136;47.032;15.398;2023-05-03T10:21:43;98093.09;;;18.29;58.07
12146;BME280;6136;47.032;15.398;2023-05-03T10:24:15;98088.59;;;18.29;57.75
12146;BME280;6136;47.032;15.398;2023-05-03T10:26:45;98081.22;;;18.10;56.40
12146;BME280;6136;47.032;15.398;2023-05-03T10:29:51;98086.16;;;17.94;57.34
12146;BME280;6136;47.032;15.398;2023-05-03T10:32:27;98088.72;;;17.96;58.30
12146;BME280;6136;47.032;15.398;2023-05-03T10:34:59;98085.72;;;17.89;58.92
12146;BME280;6136;47.032;15.398;2023-05-03T10:37:31;98086.16;;;17.94;59.73
12146;BME280;6136;47.032;15.398;2023-05-03T10:40:08;98091.84;;;18.33;57.97
12146;BME280;6136;47.032;15.398;2023-05-03T10:42:37;98084.84;;;18.62;59.46
12146;BME280;6136;47.032;15.398;2023-05-03T10:45:09;98088.84;;;18.98;57.92
12146;BME280;6136;47.032;15.398;2023-05-03T10:48:16;98090.16;;;19.04;57.42
12146;BME280;6136;47.032;15.398;2023-05-03T10:50:53;98088.00;;;18.97;58.38
12146;BME280;6136;47.032;15.398;2023-05-03T10:53:35;98085.41;;;18.86;55.98
12146;BME280;6136;47.032;15.398;2023-05-03T10:56:05;98080.84;;;18.77;56.06
12146;BME280;6136;47.032;15.398;2023-05-03T10:58:36;98084.78;;;18.73;56.02
12146;BME280;6136;47.032;15.398;2023-05-03T11:01:04;98085.22;;;18.78;55.90
12146;BME280;6136;47.032;15.398;2023-05-03T11:03:42;98077.78;;;18.61;57.92
12146;BME280;6136;47.032;15.398;2023-05-03T11:09:08;98082.22;;;18.51;58.96
12146;BME280;6136;47.032;15.398;2023-05-03T11:11:39;98084.25;;;18.38;58.22
12146;BME280;6136;47.032;15.398;2023-05-03T11:14:08;98083.75;;;18.44;58.51
12146;BME280;6136;47.032;15.398;2023-05-03T11:16:37;98086.13;;;18.47;58.25
12146;BME280;6136;47.032;15.398;2023-05-03T11:19:13;98087.19;;;18.35;58.38
12146;BME280;6136;47.032;15.398;2023-05-03T11:21:43;98085.16;;;18.06;57.85
12146;BME280;6136;47.032;15.398;2023-05-03T11:24:15;98090.97;;;17.91;58.74
12146;BME280;6136;47.032;15.398;2023-05-03T11:26:43;98092.38;;;17.95;56.48
12146;BME280;6136;47.032;15.398;2023-05-03T11:29:13;98095.47;;;17.90;60.69
12146;BME280;6136;47.032;15.398;2023-05-03T11:31:43;98088.72;;;17.96;64.72
12146;BME280;6136;47.032;15.398;2023-05-03T11:34:12;98091.63;;;17.72;67.61
12146;BME280;6136;47.032;15.398;2023-05-03T11:36:41;98092.16;;;17.43;70.00
12146;BME280;6136;47.032;15.398;2023-05-03T11:39:11;98098.06;;;17.15;72.29
12146;BME280;6136;47.032;15.398;2023-05-03T11:41:41;98097.84;;;16.96;74.42
12146;BME280;6136;47.032;15.398;2023-05-03T11:44:09;98096.84;;;16.86;75.38
12146;BME280;6136;47.032;15.398;2023-05-03T11:46:44;98098.53;;;16.76;75.50
12146;BME280;6136;47.032;15.398;2023-05-03T11:49:16;98103.50;;;16.58;73.81
12146;BME280;6136;47.032;15.398;2023-05-03T11:51:46;98094.84;;;16.43;74.80
12146;BME280;6136;47.032;15.398;2023-05-03T11:54:20;98099.06;;;16.46;75.70
12146;BME280;6136;47.032;15.398;2023-05-03T11:56:56;98096.03;;;16.39;77.35
12146;BME280;6136;47.032;15.398;2023-05-03T11:59:36;98100.66;;;16.37;77.92
12146;BME280;6136;47.032;15.398;2023-05-03T12:02:05;98098.81;;;16.38;77.92
12146;BME280;6136;47.032;15.398;2023-05-03T12:04:36;98102.81;;;16.32;77.21
12146;BME280;6136;47.032;15.398;2023-05-03T12:07:08;98108.66;;;16.26;78.62
12146;BME280;6136;47.032;15.398;2023-05-03T12:09:38;98105.13;;;16.25;77.77
12146;BME280;6136;47.032;15.398;2023-05-03T12:12:18;98101.31;;;16.17;78.99
12146;BME280;6136;47.032;15.398;2023-05-03T12:14:56;98106.09;;;16.24;79.50
12146;BME280;6136;47.032;15.398;2023-05-03T12:17:39;98101.09;;;16.20;81.10
12146;BME280;6136;47.032;15.398;2023-05-03T12:20:15;98101.59;;;16.25;85.57
12146;BME280;6136;47.032;15.398;2023-05-03T12:23:04;98104.25;;;16.25;80.70
12146;BME280;6136;47.032;15.398;2023-05-03T12:25:36;98109.41;;;16.39;84.00
12146;BME280;6136;47.032;15.398;2023-05-03T12:28:11;98104.78;;;16.30;83.60
12146;BME280;6136;47.032;15.398;2023-05-03T12:30:46;98106.44;;;16.20;85.02
12146;BME280;6136;47.032;15.398;2023-05-03T12:33:15;98091.69;;;16.03;90.04
12146;BME280;6136;47.032;15.398;2023-05-03T12:35:48;98103.28;;;16.26;92.27
12146;BME280;6136;47.032;15.398;2023-05-03T12:38:19;98100.47;;;16.62;92.01
12146;BME280;6136;47.032;15.398;2023-05-03T12:40:50;98091.50;;;16.86;90.52
12146;BME280;6136;47.032;15.398;2023-05-03T12:43:22;98090.28;;;17.01;90.78
12146;BME280;6136;47.032;15.398;2023-05-03T12:45:51;98102.19;;;17.19;90.09
12146;BME280;6136;47.032;15.398;2023-05-03T12:48:39;98095.63;;;17.23;89.80
12146;BME280;6136;47.032;15.398;2023-05-03T12:51:13;98087.09;;;17.18;91.44
12146;BME280;6136;47.032;15.398;2023-05-03T12:53:46;98076.41;;;17.18;90.26
12146;BME280;6136;47.032;15.398;2023-05-03T12:56:20;98085.66;;;16.92;90.33
12146;BME280;6136;47.032;15.398;2023-05-03T12:58:52;98094.41;;;16.72;89.46
12146;BME280;6136;47.032;15.398;2023-05-03T13:01:24;98082.44;;;16.42;90.76
12146;BME280;6136;47.032;15.398;2023-05-03T13:03:56;98087.47;;;16.23;94.90
12146;BME280;6136;47.032;15.398;2023-05-03T13:06:44;98077.63;;;15.77;100.00
12146;BME280;6136;47.032;15.398;2023-05-03T13:09:14;98076.94;;;15.63;100.00
12146;BME280;6136;47.032;15.398;2023-05-03T13:11:50;98082.25;;;15.39;100.00
12146;BME280;6136;47.032;15.398;2023-05-03T13:14:20;98086.53;;;15.29;100.00
12146;BME280;6136;47.032;15.398;2023-05-03T13:16:48;98076.59;;;15.31;100.00